createdAt,value
2023-04-30T00:00:46.557Z,64.19
2023-04-30T00:06:08.874Z,64.21
2023-04-30T00:11:01.219Z,64.26
2023-04-30T00:16:01.203Z,64.30
2023-04-30T00:21:01.186Z,64.32
2023-04-30T00:26:01.098Z,64.37
2023-04-30T00:31:01.076Z,64.37
2023-04-30T00:36:01.035Z,64.40
2023-04-30T00:41:00.869Z,64.46
2023-04-30T00:46:00.834Z,64.48
2023-04-30T00:51:00.738Z,64.54
2023-04-30T00:56:00.728Z,64.55
2023-04-30T01:01:00.599Z,64.57
2023-04-30T01:06:00.561Z,64.57
2023-04-30T01:11:00.447Z,64.60
2023-04-30T01:16:00.540Z,64.61
2023-04-30T01:21:00.318Z,64.67
2023-04-30T01:26:00.266Z,64.71
2023-04-30T01:31:00.252Z,64.73
2023-04-30T01:36:00.160Z,64.75
2023-04-30T01:41:00.059Z,64.77
2023-04-30T01:46:00.100Z,64.78
2023-04-30T01:50:59.951Z,64.79
2023-04-30T01:55:59.888Z,64.78
2023-04-30T02:00:59.858Z,64.81
2023-04-30T02:05:59.772Z,64.82
2023-04-30T02:10:59.638Z,64.85
2023-04-30T02:15:59.645Z,64.91
2023-04-30T02:20:59.517Z,64.98
2023-04-30T02:25:59.455Z,65.13
2023-04-30T02:30:59.402Z,65.24
2023-04-30T02:35:59.338Z,65.36
2023-04-30T02:40:59.263Z,65.49
2023-04-30T02:45:59.264Z,65.56
2023-04-30T02:50:59.135Z,65.59
2023-04-30T02:55:59.098Z,65.66
2023-04-30T03:00:59.019Z,65.77
2023-04-30T03:05:58.927Z,65.86
2023-04-30T03:10:58.911Z,65.93
2023-04-30T03:15:58.835Z,66.01
2023-04-30T03:20:58.738Z,66.06
2023-04-30T03:25:58.695Z,66.14
2023-04-30T03:30:58.610Z,66.18
2023-04-30T03:35:58.528Z,66.21
2023-04-30T03:40:58.477Z,66.27
2023-04-30T03:45:58.501Z,66.31
2023-04-30T03:50:58.321Z,66.34
2023-04-30T03:55:58.273Z,66.35
2023-04-30T04:00:58.226Z,66.37
2023-04-30T04:05:58.147Z,66.39
2023-04-30T04:10:58.077Z,66.38
2023-04-30T04:15:58.052Z,66.39
2023-04-30T04:20:57.970Z,66.38
2023-04-30T04:25:57.893Z,66.35
2023-04-30T04:30:57.847Z,66.28
2023-04-30T04:35:57.760Z,66.16
2023-04-30T04:40:57.682Z,66.05
2023-04-30T04:45:57.725Z,66.00
2023-04-30T04:50:57.556Z,65.95
2023-04-30T04:55:57.535Z,65.86
2023-04-30T05:00:57.414Z,65.77
2023-04-30T05:05:57.377Z,65.65
2023-04-30T05:10:57.290Z,65.56
2023-04-30T05:15:57.309Z,65.47
2023-04-30T05:20:57.120Z,65.38
2023-04-30T05:25:57.102Z,65.26
2023-04-30T05:30:57.026Z,65.17
2023-04-30T05:35:56.937Z,65.06
2023-04-30T05:40:56.890Z,64.95
2023-04-30T05:45:56.885Z,64.88
2023-04-30T05:50:56.752Z,64.81
2023-04-30T05:55:56.706Z,64.73
2023-04-30T06:01:07.423Z,64.56
2023-04-30T06:05:59.840Z,64.43
2023-04-30T06:10:59.786Z,64.21
2023-04-30T06:15:59.744Z,63.88
2023-04-30T06:20:59.668Z,53.16
2023-04-30T06:25:59.602Z,36.57
2023-04-30T06:30:59.589Z,28.55
2023-04-30T06:35:59.432Z,26.24
2023-04-30T06:40:59.450Z,24.68
2023-04-30T06:45:59.399Z,23.50
2023-04-30T06:50:59.318Z,22.90
2023-04-30T06:55:59.184Z,22.57
2023-04-30T07:00:59.161Z,23.77
2023-04-30T07:05:59.055Z,24.53
2023-04-30T07:10:59.010Z,24.69
2023-04-30T07:15:58.939Z,25.41
2023-04-30T07:20:58.948Z,26.16
2023-04-30T07:25:58.818Z,26.97
2023-04-30T07:30:58.733Z,27.72
2023-04-30T07:35:58.716Z,28.55
2023-04-30T07:40:58.597Z,28.47
2023-04-30T07:45:58.658Z,27.56
2023-04-30T07:50:58.523Z,26.04
2023-04-30T07:55:58.389Z,24.29
2023-04-30T08:00:58.367Z,22.44
2023-04-30T08:05:58.366Z,20.85
2023-04-30T08:10:58.259Z,20.56
2023-04-30T08:15:58.204Z,20.55
2023-04-30T08:20:58.126Z,21.62
2023-04-30T08:25:58.018Z,21.99
2023-04-30T08:30:57.979Z,21.40
2023-04-30T08:35:57.922Z,21.55
2023-04-30T08:40:57.849Z,21.97
2023-04-30T08:45:57.829Z,21.87
2023-04-30T08:50:57.717Z,21.77
2023-04-30T08:55:57.663Z,21.86
2023-04-30T09:00:57.588Z,21.59
2023-04-30T09:05:57.617Z,21.73
2023-04-30T09:10:57.484Z,21.49
2023-04-30T09:15:57.424Z,21.26
2023-04-30T09:20:57.513Z,20.22
2023-04-30T09:26:28.758Z,19.58
2023-04-30T09:31:21.225Z,19.11
2023-04-30T09:36:21.141Z,18.92
2023-04-30T09:41:21.175Z,18.05
2023-04-30T09:46:21.093Z,17.60
2023-04-30T09:51:20.975Z,17.44
2023-04-30T09:56:20.911Z,16.52
2023-04-30T10:01:20.921Z,16.70
2023-04-30T10:06:20.830Z,16.80
2023-04-30T10:11:20.739Z,16.20
2023-04-30T10:16:20.669Z,16.13
2023-04-30T10:21:20.503Z,15.85
2023-04-30T10:26:20.566Z,15.66
2023-04-30T10:31:20.399Z,15.36
2023-04-30T10:36:20.392Z,15.39
2023-04-30T10:41:20.379Z,15.42
2023-04-30T10:46:20.295Z,15.36
2023-04-30T10:51:20.176Z,15.64
2023-04-30T10:56:20.106Z,15.96
2023-04-30T11:01:20.049Z,15.90
2023-04-30T11:06:20.248Z,15.87
2023-04-30T11:11:19.871Z,15.85
2023-04-30T11:16:19.838Z,15.32
2023-04-30T11:21:19.745Z,15.73
2023-04-30T11:26:19.683Z,15.92
2023-04-30T11:31:19.658Z,16.04
2023-04-30T11:36:19.884Z,16.49
2023-04-30T11:41:19.496Z,16.69
2023-04-30T11:46:19.470Z,16.69
2023-04-30T11:51:19.610Z,17.19
2023-04-30T11:56:19.290Z,19.03
2023-04-30T12:01:19.551Z,18.23
2023-04-30T12:06:19.208Z,18.17
2023-04-30T12:11:19.104Z,18.99
2023-04-30T12:16:19.065Z,18.89
2023-04-30T12:21:18.963Z,18.35
2023-04-30T12:26:18.929Z,18.78
2023-04-30T12:31:18.813Z,19.45
2023-04-30T12:36:18.796Z,20.05
2023-04-30T12:41:18.880Z,20.29
2023-04-30T12:46:18.690Z,20.85
2023-04-30T12:51:18.587Z,21.29
2023-04-30T12:56:18.539Z,21.75
2023-04-30T13:01:18.511Z,21.47
2023-04-30T13:06:18.438Z,21.47
2023-04-30T13:11:18.343Z,21.63
2023-04-30T13:16:18.296Z,21.65
2023-04-30T13:21:18.173Z,22.12
2023-04-30T13:26:18.219Z,22.42
2023-04-30T13:31:18.040Z,22.53
2023-04-30T13:36:17.962Z,22.87
2023-04-30T13:41:17.928Z,22.81
2023-04-30T13:46:17.955Z,22.90
2023-04-30T13:51:17.828Z,22.91
2023-04-30T13:56:17.722Z,22.98
2023-04-30T14:01:17.746Z,22.71
2023-04-30T14:06:17.662Z,22.63
2023-04-30T14:11:17.553Z,22.92
2023-04-30T14:16:17.484Z,23.13
2023-04-30T14:21:17.458Z,23.40
2023-04-30T14:26:17.360Z,23.45
2023-04-30T14:31:17.266Z,23.44
2023-04-30T14:36:17.212Z,23.52
2023-04-30T14:41:17.143Z,23.81
2023-04-30T14:46:17.253Z,23.89
2023-04-30T14:51:16.997Z,24.17
2023-04-30T14:56:17.032Z,24.54
2023-04-30T15:01:16.978Z,24.71
2023-04-30T15:06:16.991Z,24.66
2023-04-30T15:11:16.730Z,24.65
2023-04-30T15:16:16.776Z,24.98
2023-04-30T15:21:16.707Z,25.48
2023-04-30T15:26:16.524Z,25.31
2023-04-30T15:31:16.513Z,25.40
2023-04-30T15:36:16.423Z,25.37
2023-04-30T15:41:16.305Z,25.66
2023-04-30T15:46:16.331Z,25.78
2023-04-30T15:51:16.202Z,26.06
2023-04-30T15:56:16.133Z,25.97
2023-04-30T16:01:16.193Z,25.92
2023-04-30T16:06:16.141Z,25.93
2023-04-30T16:11:16.013Z,26.20
2023-04-30T16:16:15.927Z,26.25
2023-04-30T16:21:15.856Z,26.59
2023-04-30T16:26:15.800Z,26.87
2023-04-30T16:31:15.707Z,26.98
2023-04-30T16:36:15.661Z,27.22
2023-04-30T16:41:15.556Z,27.52
2023-04-30T16:46:15.544Z,27.66
2023-04-30T16:51:15.494Z,27.81
2023-04-30T16:56:15.350Z,28.02
2023-04-30T17:01:15.414Z,28.21
2023-04-30T17:06:15.322Z,28.45
2023-04-30T17:11:15.135Z,28.74
2023-04-30T17:16:15.187Z,28.98
2023-04-30T17:21:15.073Z,29.21
2023-04-30T17:26:15.016Z,29.37
2023-04-30T17:31:14.908Z,29.59
2023-04-30T17:36:14.838Z,29.91
2023-04-30T17:41:14.812Z,30.04
2023-04-30T17:46:14.694Z,30.31
2023-04-30T17:51:14.837Z,30.51
2023-04-30T17:56:14.583Z,30.72
2023-04-30T18:01:14.479Z,30.08
2023-04-30T18:06:14.453Z,30.36
2023-04-30T18:11:14.380Z,30.77
2023-04-30T18:16:14.377Z,31.12
2023-04-30T18:21:14.200Z,31.44
2023-04-30T18:26:14.178Z,32.03
2023-04-30T18:31:14.155Z,32.44
2023-04-30T18:36:14.019Z,32.75
2023-04-30T18:41:13.952Z,33.06
2023-04-30T18:46:13.941Z,33.32
2023-04-30T18:51:13.844Z,33.64
2023-04-30T18:56:13.839Z,34.12
2023-04-30T19:01:13.700Z,34.46
2023-04-30T19:06:13.639Z,34.89
2023-04-30T19:11:13.539Z,35.35
2023-04-30T19:16:13.620Z,35.72
2023-04-30T19:21:13.433Z,35.92
2023-04-30T19:26:13.346Z,36.24
2023-04-30T19:31:13.341Z,36.48
2023-04-30T19:36:13.234Z,36.65
2023-04-30T19:41:13.179Z,36.83
2023-04-30T19:46:13.152Z,37.03
2023-04-30T19:51:13.114Z,37.21
2023-04-30T19:56:12.990Z,37.39
2023-04-30T20:01:12.992Z,37.79
2023-04-30T20:06:12.983Z,37.75
2023-04-30T20:11:12.738Z,37.94
2023-04-30T20:16:12.832Z,38.07
2023-04-30T20:21:12.642Z,38.21
2023-04-30T20:26:12.772Z,38.37
2023-04-30T20:31:12.701Z,38.53
2023-04-30T20:36:12.394Z,38.71
2023-04-30T20:41:12.749Z,38.92
2023-04-30T20:46:12.293Z,39.22
2023-04-30T20:51:12.221Z,39.37
2023-04-30T20:56:12.194Z,39.41
2023-04-30T21:01:12.100Z,39.42
2023-04-30T21:06:12.070Z,39.51
2023-04-30T21:11:12.035Z,39.66
2023-04-30T21:16:11.922Z,39.83
2023-04-30T21:21:11.876Z,39.90
2023-04-30T21:26:11.756Z,40.02
2023-04-30T21:31:11.769Z,40.01
2023-04-30T21:36:11.624Z,40.10
2023-04-30T21:41:11.557Z,40.21
2023-04-30T21:46:11.538Z,40.43
2023-04-30T21:51:11.461Z,40.55
2023-04-30T21:56:11.416Z,40.61
2023-04-30T22:01:11.311Z,40.81
2023-04-30T22:06:11.285Z,40.92
2023-04-30T22:11:11.154Z,41.23
2023-04-30T22:16:11.174Z,41.31
2023-04-30T22:21:11.018Z,41.44
2023-04-30T22:26:10.937Z,41.65
2023-04-30T22:31:10.875Z,41.69
2023-04-30T22:36:10.817Z,41.81
2023-04-30T22:41:10.731Z,41.96
2023-04-30T22:46:10.728Z,42.12
2023-04-30T22:51:10.641Z,42.37
2023-04-30T22:56:10.590Z,42.37
2023-04-30T23:01:10.544Z,42.34
2023-04-30T23:06:10.539Z,42.31
2023-04-30T23:11:10.378Z,42.31
2023-04-30T23:16:10.368Z,42.33
2023-04-30T23:21:10.218Z,42.36
2023-04-30T23:26:10.182Z,42.50
2023-04-30T23:31:10.089Z,42.58
2023-04-30T23:36:10.033Z,42.60
2023-04-30T23:41:09.972Z,42.71
2023-04-30T23:46:09.987Z,42.82
2023-04-30T23:51:09.852Z,42.84
2023-04-30T23:56:09.784Z,43.04
